sensor_id;sensor_type;location;lat;lon;timestamp;pressure;altitude;pressure_sealevel;temperature;humidity
59650;BME280;46162;57.568;25.814;2023-03-01T00:01:50;101398.22;;;-2.41;100.00
59650;BME280;46162;57.568;25.814;2023-03-01T00:04:19;101402.50;;;-2.63;100.00
59650;BME280;46162;57.568;25.814;2023-03-01T00:06:47;101392.03;;;-2.66;100.00
59650;BME280;46162;57.568;25.814;2023-03-01T00:09:16;101389.53;;;-2.71;100.00
59650;BME280;46162;57.568;25.814;2023-03-01T00:11:45;101388.56;;;-2.68;100.00
59650;BME280;46162;57.568;25.814;2023-03-01T00:14:14;101383.28;;;-2.68;100.00
59650;BME280;46162;57.568;25.814;2023-03-01T00:16:44;101382.41;;;-2.69;100.00
59650;BME280;46162;57.568;25.814;2023-03-01T00:19:16;101381.47;;;-2.66;100.00
59650;BME280;46162;57.568;25.814;2023-03-01T00:21:46;101377.06;;;-2.67;100.00
59650;BME280;46162;57.568;25.814;2023-03-01T00:24:15;101376.91;;;-2.63;100.00
59650;BME280;46162;57.568;25.814;2023-03-01T00:26:43;101379.31;;;-2.55;100.00
59650;BME280;46162;57.568;25.814;2023-03-01T00:29:13;101383.69;;;-2.54;100.00
59650;BME280;46162;57.568;25.814;2023-03-01T00:31:42;101380.94;;;-2.51;100.00
59650;BME280;46162;57.568;25.814;2023-03-01T00:34:10;101381.72;;;-2.47;100.00
59650;BME280;46162;57.568;25.814;2023-03-01T00:36:40;101379.00;;;-2.46;100.00
59650;BME280;46162;57.568;25.814;2023-03-01T00:39:12;101380.63;;;-2.42;100.00
59650;BME280;46162;57.568;25.814;2023-03-01T00:41:41;101384.88;;;-2.38;100.00
59650;BME280;46162;57.568;25.814;2023-03-01T00:44:10;101388.47;;;-2.39;100.00
59650;BME280;46162;57.568;25.814;2023-03-01T00:46:39;101381.38;;;-2.38;100.00
59650;BME280;46162;57.568;25.814;2023-03-01T00:49:07;101377.75;;;-2.35;100.00
59650;BME280;46162;57.568;25.814;2023-03-01T00:51:36;101379.72;;;-2.41;100.00
59650;BME280;46162;57.568;25.814;2023-03-01T00:54:08;101381.38;;;-2.38;100.00
59650;BME280;46162;57.568;25.814;2023-03-01T00:56:37;101376.88;;;-2.34;100.00
59650;BME280;46162;57.568;25.814;2023-03-01T00:59:05;101378.53;;;-2.32;100.00
59650;BME280;46162;57.568;25.814;2023-03-01T01:01:34;101383.75;;;-2.30;100.00
59650;BME280;46162;57.568;25.814;2023-03-01T01:04:06;101387.34;;;-2.31;100.00
59650;BME280;46162;57.568;25.814;2023-03-01T01:06:36;101384.69;;;-2.31;100.00
59650;BME280;46162;57.568;25.814;2023-03-01T01:09:11;101378.53;;;-2.32;100.00
59650;BME280;46162;57.568;25.814;2023-03-01T01:11:45;101377.41;;;-2.25;100.00
59650;BME280;46162;57.568;25.814;2023-03-01T01:14:14;101387.22;;;-2.28;100.00
59650;BME280;46162;57.568;25.814;2023-03-01T01:16:43;101380.91;;;-2.24;100.00
59650;BME280;46162;57.568;25.814;2023-03-01T01:19:12;101379.09;;;-2.22;100.00
59650;BME280;46162;57.568;25.814;2023-03-01T01:21:41;101384.31;;;-2.21;100.00
59650;BME280;46162;57.568;25.814;2023-03-01T01:24:12;101382.63;;;-2.23;100.00
59650;BME280;46162;57.568;25.814;2023-03-01T01:26:41;101386.09;;;-2.21;100.00
59650;BME280;46162;57.568;25.814;2023-03-01T01:29:10;101385.41;;;-2.26;100.00
59650;BME280;46162;57.568;25.814;2023-03-01T01:31:41;101387.59;;;-2.39;100.00
59650;BME280;46162;57.568;25.814;2023-03-01T01:34:13;101398.22;;;-2.41;100.00
59650;BME280;46162;57.568;25.814;2023-03-01T01:36:43;101404.38;;;-2.40;100.00
59650;BME280;46162;57.568;25.814;2023-03-01T01:39:13;101401.97;;;-2.48;100.00
59650;BME280;46162;57.568;25.814;2023-03-01T01:41:42;101412.56;;;-2.48;100.00
59650;BME280;46162;57.568;25.814;2023-03-01T01:44:14;101412.38;;;-2.42;100.00
59650;BME280;46162;57.568;25.814;2023-03-01T01:46:44;101415.88;;;-2.41;100.00
59650;BME280;46162;57.568;25.814;2023-03-01T01:49:22;101406.31;;;-2.45;100.00
59650;BME280;46162;57.568;25.814;2023-03-01T01:51:57;101403.81;;;-2.50;100.00
59650;BME280;46162;57.568;25.814;2023-03-01T01:54:36;101403.81;;;-2.50;100.00
59650;BME280;46162;57.568;25.814;2023-03-01T01:57:10;101412.53;;;-2.46;100.00
59650;BME280;46162;57.568;25.814;2023-03-01T01:59:43;101410.06;;;-2.52;100.00
59650;BME280;46162;57.568;25.814;2023-03-01T02:02:14;101416.31;;;-2.55;100.00
59650;BME280;46162;57.568;25.814;2023-03-01T02:04:43;101412.09;;;-2.61;100.00
59650;BME280;46162;57.568;25.814;2023-03-01T02:07:16;101408.44;;;-2.56;100.00
59650;BME280;46162;57.568;25.814;2023-03-01T02:09:48;101409.31;;;-2.56;100.00
59650;BME280;46162;57.568;25.814;2023-03-01T02:12:20;101419.88;;;-2.56;100.00
59650;BME280;46162;57.568;25.814;2023-03-01T02:14:50;101403.72;;;-2.47;100.00
59650;BME280;46162;57.568;25.814;2023-03-01T02:17:19;101408.06;;;-2.44;100.00
59650;BME280;46162;57.568;25.814;2023-03-01T02:20:01;101411.25;;;-2.34;100.00
59650;BME280;46162;57.568;25.814;2023-03-01T02:22:36;101402.44;;;-2.35;100.00
59650;BME280;46162;57.568;25.814;2023-03-01T02:27:51;101412.94;;;-2.32;100.00
59650;BME280;46162;57.568;25.814;2023-03-01T02:30:25;101402.44;;;-2.35;100.00
59650;BME280;46162;57.568;25.814;2023-03-01T02:32:56;101407.72;;;-2.35;100.00
59650;BME280;46162;57.568;25.814;2023-03-01T02:35:32;101399.97;;;-2.40;100.00
59650;BME280;46162;57.568;25.814;2023-03-01T02:38:03;101401.69;;;-2.39;100.00
59650;BME280;46162;57.568;25.814;2023-03-01T02:40:35;101400.97;;;-2.44;100.00
59650;BME280;46162;57.568;25.814;2023-03-01T02:43:08;101402.94;;;-2.50;100.00
59650;BME280;46162;57.568;25.814;2023-03-01T02:45:48;101410.69;;;-2.44;100.00
59650;BME280;46162;57.568;25.814;2023-03-01T02:48:17;101405.41;;;-2.44;100.00
59650;BME280;46162;57.568;25.814;2023-03-01T02:51:00;101399.19;;;-2.43;100.00
59650;BME280;46162;57.568;25.814;2023-03-01T02:53:36;101398.44;;;-2.47;100.00
59650;BME280;46162;57.568;25.814;2023-03-01T02:56:07;101401.97;;;-2.48;100.00
59650;BME280;46162;57.568;25.814;2023-03-01T02:58:40;101403.72;;;-2.47;100.00
59650;BME280;46162;57.568;25.814;2023-03-01T03:01:14;101406.97;;;-2.39;100.00
59650;BME280;46162;57.568;25.814;2023-03-01T03:03:44;101406.03;;;-2.38;100.00
59650;BME280;46162;57.568;25.814;2023-03-01T03:06:13;101401.56;;;-2.35;100.00
59650;BME280;46162;57.568;25.814;2023-03-01T03:08:42;101408.50;;;-2.31;100.00
59650;BME280;46162;57.568;25.814;2023-03-01T03:11:11;101409.50;;;-2.35;100.00
59650;BME280;46162;57.568;25.814;2023-03-01T03:13:39;101405.03;;;-2.33;100.00
59650;BME280;46162;57.568;25.814;2023-03-01T03:16:18;101418.09;;;-2.29;100.00
59650;BME280;46162;57.568;25.814;2023-03-01T03:18:47;101408.50;;;-2.31;100.00
59650;BME280;46162;57.568;25.814;2023-03-01T03:21:16;101415.34;;;-2.26;100.00
59650;BME280;46162;57.568;25.814;2023-03-01T03:23:44;101419.88;;;-2.29;100.00
59650;BME280;46162;57.568;25.814;2023-03-01T03:26:13;101422.44;;;-2.26;100.00
59650;BME280;46162;57.568;25.814;2023-03-01T03:28:42;101427.31;;;-2.41;100.00
59650;BME280;46162;57.568;25.814;2023-03-01T03:31:10;101422.72;;;-2.35;100.00
59650;BME280;46162;57.568;25.814;2023-03-01T03:33:41;101424.66;;;-2.41;100.00
59650;BME280;46162;57.568;25.814;2023-03-01T03:36:09;101430.81;;;-2.40;100.00
59650;BME280;46162;57.568;25.814;2023-03-01T03:38:40;101429.94;;;-2.41;100.00
59650;BME280;46162;57.568;25.814;2023-03-01T03:41:08;101434.94;;;-2.31;100.00
59650;BME280;46162;57.568;25.814;2023-03-01T03:43:38;101433.31;;;-2.35;100.00
59650;BME280;46162;57.568;25.814;2023-03-01T03:46:09;101427.31;;;-2.41;100.00
59650;BME280;46162;57.568;25.814;2023-03-01T03:48:39;101430.91;;;-2.43;100.00
59650;BME280;46162;57.568;25.814;2023-03-01T03:51:11;101429.13;;;-2.43;100.00
59650;BME280;46162;57.568;25.814;2023-03-01T03:53:41;101432.72;;;-2.44;100.00
59650;BME280;46162;57.568;25.814;2023-03-01T03:56:10;101435.47;;;-2.47;100.00
59650;BME280;46162;57.568;25.814;2023-03-01T03:58:38;101425.84;;;-2.49;100.00
59650;BME280;46162;57.568;25.814;2023-03-01T04:01:07;101421.41;;;-2.49;100.00
59650;BME280;46162;57.568;25.814;2023-03-01T04:03:36;101422.38;;;-2.51;100.00
59650;BME280;46162;57.568;25.814;2023-03-01T04:06:05;101416.31;;;-2.55;100.00
59650;BME280;46162;57.568;25.814;2023-03-01T04:08:35;101424.97;;;-2.50;100.00
59650;BME280;46162;57.568;25.814;2023-03-01T04:11:05;101424.97;;;-2.50;100.00
59650;BME280;46162;57.568;25.814;2023-03-01T04:13:48;101422.31;;;-2.50;100.00
59650;BME280;46162;57.568;25.814;2023-03-01T04:16:17;101425.22;;;-2.57;100.00
59650;BME280;46162;57.568;25.814;2023-03-01T04:18:46;101417.47;;;-2.62;100.00
59650;BME280;46162;57.568;25.814;2023-03-01T04:21:15;101424.50;;;-2.63;100.00
59650;BME280;46162;57.568;25.814;2023-03-01T04:23:45;101421.72;;;-2.58;100.00
59650;BME280;46162;57.568;25.814;2023-03-01T04:26:14;101420.19;;;-2.65;100.00
59650;BME280;46162;57.568;25.814;2023-03-01T04:28:43;101414.25;;;-2.72;100.00
59650;BME280;46162;57.568;25.814;2023-03-01T04:31:14;101420.13;;;-2.64;100.00
59650;BME280;46162;57.568;25.814;2023-03-01T04:33:47;101425.78;;;-2.74;100.00
59650;BME280;46162;57.568;25.814;2023-03-01T04:36:17;101411.75;;;-2.76;100.00
59650;BME280;46162;57.568;25.814;2023-03-01T04:38:48;101412.56;;;-2.74;100.00
59650;BME280;46162;57.568;25.814;2023-03-01T04:41:19;101417.50;;;-2.64;100.00
59650;BME280;46162;57.568;25.814;2023-03-01T04:43:48;101424.66;;;-2.67;100.00
59650;BME280;46162;57.568;25.814;2023-03-01T04:46:19;101419.06;;;-2.58;100.00
59650;BME280;46162;57.568;25.814;2023-03-01T04:48:49;101414.88;;;-2.65;100.00
59650;BME280;46162;57.568;25.814;2023-03-01T04:51:18;101420.69;;;-2.81;100.00
59650;BME280;46162;57.568;25.814;2023-03-01T04:53:49;101420.44;;;-3.01;100.00
59650;BME280;46162;57.568;25.814;2023-03-01T04:56:18;101427.66;;;-3.36;100.00
59650;BME280;46162;57.568;25.814;2023-03-01T04:58:47;101427.53;;;-3.62;100.00
59650;BME280;46162;57.568;25.814;2023-03-01T05:01:17;101430.91;;;-3.57;100.00
59650;BME280;46162;57.568;25.814;2023-03-01T05:03:48;101436.19;;;-3.57;100.00
59650;BME280;46162;57.568;25.814;2023-03-01T05:06:19;101439.81;;;-3.61;100.00
59650;BME280;46162;57.568;25.814;2023-03-01T05:08:49;101435.19;;;-3.53;100.00
59650;BME280;46162;57.568;25.814;2023-03-01T05:11:18;101441.09;;;-3.43;100.00
59650;BME280;46162;57.568;25.814;2023-03-01T05:13:47;101445.75;;;-3.53;100.00
59650;BME280;46162;57.568;25.814;2023-03-01T05:16:17;101449.56;;;-3.63;100.00
59650;BME280;46162;57.568;25.814;2023-03-01T05:18:47;101451.25;;;-3.61;100.00
59650;BME280;46162;57.568;25.814;2023-03-01T05:21:17;101448.06;;;-3.74;100.00
59650;BME280;46162;57.568;25.814;2023-03-01T05:23:46;101455.97;;;-3.74;100.00
59650;BME280;46162;57.568;25.814;2023-03-01T05:26:18;101458.03;;;-4.18;100.00
59650;BME280;46162;57.568;25.814;2023-03-01T05:29:06;101458.31;;;-4.66;100.00
59650;BME280;46162;57.568;25.814;2023-03-01T05:31:36;101457.94;;;-4.88;100.00
59650;BME280;46162;57.568;25.814;2023-03-01T05:34:05;101462.88;;;-5.11;100.00
59650;BME280;46162;57.568;25.814;2023-03-01T05:36:35;101454.72;;;-5.01;100.00
59650;BME280;46162;57.568;25.814;2023-03-01T05:39:05;101458.78;;;-4.86;100.00
59650;BME280;46162;57.568;25.814;2023-03-01T05:41:38;101466.06;;;-4.97;100.00
59650;BME280;46162;57.568;25.814;2023-03-01T05:44:08;101464.03;;;-4.84;100.00
59650;BME280;46162;57.568;25.814;2023-03-01T05:46:39;101474.13;;;-5.05;100.00
59650;BME280;46162;57.568;25.814;2023-03-01T05:49:08;101472.25;;;-5.00;100.00
59650;BME280;46162;57.568;25.814;2023-03-01T05:51:37;101464.44;;;-4.64;100.00
59650;BME280;46162;57.568;25.814;2023-03-01T05:54:06;101464.88;;;-4.45;100.00
59650;BME280;46162;57.568;25.814;2023-03-01T05:56:36;101473.84;;;-4.54;100.00
59650;BME280;46162;57.568;25.814;2023-03-01T05:59:07;101459.81;;;-4.54;100.00
59650;BME280;46162;57.568;25.814;2023-03-01T06:01:37;101457.38;;;-4.62;100.00
59650;BME280;46162;57.568;25.814;2023-03-01T06:04:06;101455.69;;;-4.66;100.00
59650;BME280;46162;57.568;25.814;2023-03-01T06:06:36;101463.28;;;-4.89;100.00
59650;BME280;46162;57.568;25.814;2023-03-01T06:09:05;101462.63;;;-5.01;100.00
59650;BME280;46162;57.568;25.814;2023-03-01T06:11:37;101472.59;;;-5.15;100.00
59650;BME280;46162;57.568;25.814;2023-03-01T06:14:08;101472.06;;;-4.90;100.00
59650;BME280;46162;57.568;25.814;2023-03-01T06:16:37;101468.22;;;-4.76;100.00
59650;BME280;46162;57.568;25.814;2023-03-01T06:19:08;101478.72;;;-4.74;100.00
59650;BME280;46162;57.568;25.814;2023-03-01T06:21:40;101474.81;;;-4.58;100.00
59650;BME280;46162;57.568;25.814;2023-03-01T06:24:09;101474.13;;;-4.64;100.00
59650;BME280;46162;57.568;25.814;2023-03-01T06:26:38;101475.53;;;-4.49;100.00
59650;BME280;46162;57.568;25.814;2023-03-01T06:29:08;101474.47;;;-4.42;100.00
59650;BME280;46162;57.568;25.814;2023-03-01T06:31:39;101469.63;;;-4.61;100.00
59650;BME280;46162;57.568;25.814;2023-03-01T06:34:14;101470.38;;;-4.56;100.00
59650;BME280;46162;57.568;25.814;2023-03-01T06:36:46;101477.66;;;-5.06;100.00
59650;BME280;46162;57.568;25.814;2023-03-01T06:39:15;101480.09;;;-4.97;100.00
59650;BME280;46162;57.568;25.814;2023-03-01T06:41:45;101477.31;;;-4.90;100.00
59650;BME280;46162;57.568;25.814;2023-03-01T06:44:19;101475.69;;;-4.57;100.00
59650;BME280;46162;57.568;25.814;2023-03-01T06:46:48;101474.97;;;-4.64;100.00
59650;BME280;46162;57.568;25.814;2023-03-01T06:49:17;101471.22;;;-4.54;100.00
59650;BME280;46162;57.568;25.814;2023-03-01T06:51:48;101467.53;;;-4.46;100.00
59650;BME280;46162;57.568;25.814;2023-03-01T06:54:17;101465.00;;;-4.51;100.00
59650;BME280;46162;57.568;25.814;2023-03-01T06:56:50;101480.16;;;-4.61;100.00
59650;BME280;46162;57.568;25.814;2023-03-01T06:59:21;101491.84;;;-4.72;100.00
59650;BME280;46162;57.568;25.814;2023-03-01T07:01:51;101483.44;;;-4.88;100.00
59650;BME280;46162;57.568;25.814;2023-03-01T07:04:24;101482.06;;;-4.67;100.00
59650;BME280;46162;57.568;25.814;2023-03-01T07:06:55;101475.41;;;-4.45;100.00
59650;BME280;46162;57.568;25.814;2023-03-01T07:09:24;101472.41;;;-4.31;100.00
59650;BME280;46162;57.568;25.814;2023-03-01T07:11:53;101491.31;;;-4.14;100.00
59650;BME280;46162;57.568;25.814;2023-03-01T07:14:24;101501.66;;;-4.04;100.00
59650;BME280;46162;57.568;25.814;2023-03-01T07:16:53;101491.81;;;-3.98;100.00
59650;BME280;46162;57.568;25.814;2023-03-01T07:19:22;101498.69;;;-3.92;100.00
59650;BME280;46162;57.568;25.814;2023-03-01T07:21:51;101508.31;;;-3.90;100.00
59650;BME280;46162;57.568;25.814;2023-03-01T07:24:20;101504.41;;;-3.75;100.00
59650;BME280;46162;57.568;25.814;2023-03-01T07:26:49;101505.53;;;-3.52;100.00
59650;BME280;46162;57.568;25.814;2023-03-01T07:29:18;101499.41;;;-3.21;100.00
59650;BME280;46162;57.568;25.814;2023-03-01T07:31:48;101501.03;;;-2.86;100.00
59650;BME280;46162;57.568;25.814;2023-03-01T07:34:17;101504.53;;;-2.86;100.00
59650;BME280;46162;57.568;25.814;2023-03-01T07:36:46;101507.50;;;-2.68;100.00
59650;BME280;46162;57.568;25.814;2023-03-01T07:39:15;101509.69;;;-2.53;100.00
59650;BME280;46162;57.568;25.814;2023-03-01T07:41:45;101500.63;;;-2.46;100.00
59650;BME280;46162;57.568;25.814;2023-03-01T07:44:16;101495.97;;;-2.38;100.00
59650;BME280;46162;57.568;25.814;2023-03-01T07:46:45;101497.50;;;-2.30;100.00
59650;BME280;46162;57.568;25.814;2023-03-01T07:49:15;101488.50;;;-2.25;100.00
59650;BME280;46162;57.568;25.814;2023-03-01T07:51:44;101494.56;;;-2.21;100.00
59650;BME280;46162;57.568;25.814;2023-03-01T07:54:13;101488.25;;;-2.17;100.00
59650;BME280;46162;57.568;25.814;2023-03-01T07:56:41;101490.78;;;-2.14;100.00
59650;BME280;46162;57.568;25.814;2023-03-01T07:59:10;101494.91;;;-2.05;100.00
59650;BME280;46162;57.568;25.814;2023-03-01T08:01:39;101492.09;;;-2.01;100.00
59650;BME280;46162;57.568;25.814;2023-03-01T08:04:08;101490.16;;;-1.96;100.00
59650;BME280;46162;57.568;25.814;2023-03-01T08:06:39;101490.81;;;-1.89;100.00
59650;BME280;46162;57.568;25.814;2023-03-01T08:09:10;101487.06;;;-1.82;100.00
59650;BME280;46162;57.568;25.814;2023-03-01T08:11:39;101491.25;;;-1.76;100.00
59650;BME280;46162;57.568;25.814;2023-03-01T08:14:08;101492.03;;;-1.73;100.00
59650;BME280;46162;57.568;25.814;2023-03-01T08:16:37;101491.81;;;-1.66;100.00
59650;BME280;46162;57.568;25.814;2023-03-01T08:19:08;101494.28;;;-1.62;100.00
59650;BME280;46162;57.568;25.814;2023-03-01T08:21:38;101494.28;;;-1.62;100.00
59650;BME280;46162;57.568;25.814;2023-03-01T08:24:08;101493.97;;;-1.53;100.00
59650;BME280;46162;57.568;25.814;2023-03-01T08:26:38;101493.66;;;-1.43;100.00
59650;BME280;46162;57.568;25.814;2023-03-01T08:29:06;101491.78;;;-1.41;100.00
59650;BME280;46162;57.568;25.814;2023-03-01T08:31:37;101497.03;;;-1.40;100.00
59650;BME280;46162;57.568;25.814;2023-03-01T08:34:07;101494.41;;;-1.40;100.00
59650;BME280;46162;57.568;25.814;2023-03-01T08:36:37;101492.41;;;-1.33;100.00
59650;BME280;46162;57.568;25.814;2023-03-01T08:39:09;101493.22;;;-1.31;100.00
59650;BME280;46162;57.568;25.814;2023-03-01T08:41:39;101491.19;;;-1.24;100.00
59650;BME280;46162;57.568;25.814;2023-03-01T08:44:10;101485.72;;;-1.20;100.00
59650;BME280;46162;57.568;25.814;2023-03-01T08:46:41;101483.88;;;-1.18;100.00
59650;BME280;46162;57.568;25.814;2023-03-01T08:49:12;101491.66;;;-1.13;100.00
59650;BME280;46162;57.568;25.814;2023-03-01T08:51:41;101484.31;;;-1.06;100.00
59650;BME280;46162;57.568;25.814;2023-03-01T08:54:14;101483.34;;;-1.04;100.00
59650;BME280;46162;57.568;25.814;2023-03-01T08:56:43;101476.97;;;-0.98;100.00
59650;BME280;46162;57.568;25.814;2023-03-01T08:59:13;101471.53;;;-0.95;100.00
59650;BME280;46162;57.568;25.814;2023-03-01T09:01:42;101476.59;;;-0.89;100.00
59650;BME280;46162;57.568;25.814;2023-03-01T09:04:12;101480.22;;;-0.92;100.00
59650;BME280;46162;57.568;25.814;2023-03-01T09:06:42;101473.00;;;-0.87;100.00
59650;BME280;46162;57.568;25.814;2023-03-01T09:09:17;101469.78;;;-0.73;100.00
59650;BME280;46162;57.568;25.814;2023-03-01T09:11:46;101474.09;;;-0.70;100.00
59650;BME280;46162;57.568;25.814;2023-03-01T09:14:17;101471.41;;;-0.69;100.00
59650;BME280;46162;57.568;25.814;2023-03-01T09:16:45;101465.09;;;-0.66;100.00
59650;BME280;46162;57.568;25.814;2023-03-01T09:19:14;101456.47;;;-0.71;100.00
59650;BME280;46162;57.568;25.814;2023-03-01T09:21:43;101467.88;;;-0.69;100.00
59650;BME280;46162;57.568;25.814;2023-03-01T09:24:22;101472.88;;;-0.61;100.00
59650;BME280;46162;57.568;25.814;2023-03-01T09:26:53;101463.84;;;-0.57;100.00
59650;BME280;46162;57.568;25.814;2023-03-01T09:29:23;101455.84;;;-0.56;100.00
59650;BME280;46162;57.568;25.814;2023-03-01T09:31:53;101454.13;;;-0.57;100.00
59650;BME280;46162;57.568;25.814;2023-03-01T09:34:23;101461.34;;;-0.60;100.00
59650;BME280;46162;57.568;25.814;2023-03-01T09:36:51;101466.59;;;-0.59;100.00
59650;BME280;46162;57.568;25.814;2023-03-01T09:39:22;101464.13;;;-0.41;100.00
59650;BME280;46162;57.568;25.814;2023-03-01T09:41:57;101465.69;;;-0.37;100.00
59650;BME280;46162;57.568;25.814;2023-03-01T09:44:34;101458.81;;;-0.41;100.00
59650;BME280;46162;57.568;25.814;2023-03-01T09:47:09;101458.19;;;-0.48;100.00
59650;BME280;46162;57.568;25.814;2023-03-01T09:49:43;101450.38;;;-0.51;100.00
59650;BME280;46162;57.568;25.814;2023-03-01T09:52:23;101445.56;;;-0.41;100.00
59650;BME280;46162;57.568;25.814;2023-03-01T09:54:56;101445.88;;;-0.49;100.00
59650;BME280;46162;57.568;25.814;2023-03-01T09:57:32;101443.81;;;-0.43;100.00
59650;BME280;46162;57.568;25.814;2023-03-01T10:00:36;101454.03;;;-0.33;100.00
59650;BME280;46162;57.568;25.814;2023-03-01T10:03:14;101451.75;;;-0.20;100.00
59650;BME280;46162;57.568;25.814;2023-03-01T10:05:53;101452.69;;;-0.22;100.00
59650;BME280;46162;57.568;25.814;2023-03-01T10:08:28;101453.50;;;-0.19;100.00
59650;BME280;46162;57.568;25.814;2023-03-01T10:11:00;101451.22;;;-0.08;100.00
59650;BME280;46162;57.568;25.814;2023-03-01T10:13:34;101454.81;;;-0.09;100.00
59650;BME280;46162;57.568;25.814;2023-03-01T10:16:12;101453.75;;;-0.05;100.00
59650;BME280;46162;57.568;25.814;2023-03-01T10:18:43;101450.03;;;-0.01;100.00
59650;BME280;46162;57.568;25.814;2023-03-01T10:21:18;101442.06;;;-0.01;100.00
59650;BME280;46162;57.568;25.814;2023-03-01T10:23:50;101450.84;;;0.01;100.00
59650;BME280;46162;57.568;25.814;2023-03-01T10:26:32;101433.06;;;0.03;100.00
59650;BME280;46162;57.568;25.814;2023-03-01T10:29:06;101442.75;;;0.04;100.00
59650;BME280;46162;57.568;25.814;2023-03-01T10:31:42;101433.88;;;0.05;100.00
59650;BME280;46162;57.568;25.814;2023-03-01T10:34:14;101431.06;;;0.08;100.00
59650;BME280;46162;57.568;25.814;2023-03-01T10:36:47;101426.47;;;0.12;100.00
59650;BME280;46162;57.568;25.814;2023-03-01T10:39:18;101429.31;;;0.07;100.00
59650;BME280;46162;57.568;25.814;2023-03-01T10:42:20;101433.25;;;0.19;100.00
59650;BME280;46162;57.568;25.814;2023-03-01T10:44:52;101435.25;;;0.14;100.00
59650;BME280;46162;57.568;25.814;2023-03-01T10:47:23;101432.78;;;0.30;100.00
59650;BME280;46162;57.568;25.814;2023-03-01T10:49:59;101435.69;;;0.24;100.00
59650;BME280;46162;57.568;25.814;2023-03-01T10:52:31;101431.09;;;0.27;100.00
59650;BME280;46162;57.568;25.814;2023-03-01T10:55:03;101439.06;;;0.27;100.00
59650;BME280;46162;57.568;25.814;2023-03-01T10:57:37;101437.50;;;0.23;100.00
59650;BME280;46162;57.568;25.814;2023-03-01T11:00:21;101436.34;;;0.29;100.00
59650;BME280;46162;57.568;25.814;2023-03-01T11:03:03;101430.91;;;0.32;100.00
59650;BME280;46162;57.568;25.814;2023-03-01T11:05:51;101435.31;;;0.33;100.00
59650;BME280;46162;57.568;25.814;2023-03-01T11:08:39;101426.78;;;0.45;100.00
59650;BME280;46162;57.568;25.814;2023-03-01T11:11:30;101420.22;;;0.33;100.00
59650;BME280;46162;57.568;25.814;2023-03-01T11:14:07;101415.63;;;0.37;100.00
59650;BME280;46162;57.568;25.814;2023-03-01T11:16:59;101407.53;;;0.40;100.00
59650;BME280;46162;57.568;25.814;2023-03-01T11:19:29;101411.84;;;0.42;100.00
59650;BME280;46162;57.568;25.814;2023-03-01T11:22:02;101408.31;;;0.42;100.00
59650;BME280;46162;57.568;25.814;2023-03-01T11:24:42;101395.72;;;0.47;100.00
59650;BME280;46162;57.568;25.814;2023-03-01T11:27:18;101395.47;;;0.52;100.00
59650;BME280;46162;57.568;25.814;2023-03-01T11:29:52;101392.25;;;0.45;100.00
59650;BME280;46162;57.568;25.814;2023-03-01T11:32:25;101384.28;;;0.45;100.00
59650;BME280;46162;57.568;25.814;2023-03-01T11:34:59;101390.91;;;0.55;100.00
59650;BME280;46162;57.568;25.814;2023-03-01T11:37:36;101378.31;;;0.59;100.00
59650;BME280;46162;57.568;25.814;2023-03-01T11:40:16;101382.50;;;0.64;100.00
59650;BME280;46162;57.568;25.814;2023-03-01T11:42:56;101378.59;;;0.72;100.00
59650;BME280;46162;57.568;25.814;2023-03-01T11:45:40;101378.34;;;0.78;100.00
59650;BME280;46162;57.568;25.814;2023-03-01T11:48:28;101367.53;;;0.81;100.00
59650;BME280;46162;57.568;25.814;2023-03-01T11:51:22;101360.66;;;0.77;100.00
59650;BME280;46162;57.568;25.814;2023-03-01T11:54:09;101351.81;;;0.76;100.00
59650;BME280;46162;57.568;25.814;2023-03-01T11:56:46;101348.94;;;0.81;100.00
59650;BME280;46162;57.568;25.814;2023-03-01T12:02:44;101339.41;;;0.77;100.00
59650;BME280;46162;57.568;25.814;2023-03-01T12:05:55;101333.75;;;1.02;100.00
59650;BME280;46162;57.568;25.814;2023-03-01T12:08:35;101334.91;;;0.96;100.00
59650;BME280;46162;57.568;25.814;2023-03-01T12:11:18;101330.69;;;0.92;100.00
59650;BME280;46162;57.568;25.814;2023-03-01T12:14:04;101334.91;;;0.96;100.00
59650;BME280;46162;57.568;25.814;2023-03-01T12:20:07;101337.16;;;1.23;100.00
59650;BME280;46162;57.568;25.814;2023-03-01T12:22:44;101336.53;;;1.18;100.00
59650;BME280;46162;57.568;25.814;2023-03-01T12:25:26;101341.47;;;1.25;100.00
59650;BME280;46162;57.568;25.814;2023-03-01T12:28:24;101334.81;;;1.17;100.00
59650;BME280;46162;57.568;25.814;2023-03-01T12:31:13;101343.00;;;1.12;100.00
59650;BME280;46162;57.568;25.814;2023-03-01T12:33:54;101349.97;;;1.15;100.00
59650;BME280;46162;57.568;25.814;2023-03-01T12:36:45;101338.06;;;1.04;100.00
59650;BME280;46162;57.568;25.814;2023-03-01T12:39:37;101337.97;;;1.42;100.00
59650;BME280;46162;57.568;25.814;2023-03-01T12:42:15;101343.44;;;1.39;100.00
59650;BME280;46162;57.568;25.814;2023-03-01T12:44:57;101331.13;;;1.19;100.00
59650;BME280;46162;57.568;25.814;2023-03-01T12:47:40;101325.69;;;1.03;100.00
59650;BME280;46162;57.568;25.814;2023-03-01T12:50:18;101323.78;;;0.88;100.00
59650;BME280;46162;57.568;25.814;2023-03-01T12:52:51;101320.00;;;1.11;100.00
59650;BME280;46162;57.568;25.814;2023-03-01T12:55:31;101317.47;;;1.27;100.00
59650;BME280;46162;57.568;25.814;2023-03-01T12:58:04;101315.19;;;1.19;100.00
59650;BME280;46162;57.568;25.814;2023-03-01T13:00:40;101315.56;;;1.12;100.00
59650;BME280;46162;57.568;25.814;2023-03-01T13:03:19;101313.03;;;1.08;100.00
59650;BME280;46162;57.568;25.814;2023-03-01T13:06:04;101301.53;;;1.08;100.00
59650;BME280;46162;57.568;25.814;2023-03-01T13:08:42;101302.72;;;1.02;100.00
59650;BME280;46162;57.568;25.814;2023-03-01T13:11:17;101301.03;;;0.82;100.00